Startpagina
METAR-TAF:

METAR-TAF

Vliegvelden :

George Best Belfast City Airport

Belfast City, Noord-Ierland

breedte: 54-36N, lengte: 005-53W, hoogte: 5 m

Actueel weer

Dit bericht is 18 minuten geleden gemaakt, om 08:20 UTC
Wind 6 kt uit het zuidzuidwesten
Temperatuur 6°C
Vochtigheid 93%
Druk 1036 hPa
Zicht 10 km of meer

METAR: EGAC 220820Z AUTO 20006KT 9999 BKN020/// 06/05 Q1036

Tijdstip: 08:38 (08:38 UTC)

Verwachting

Dit bericht is 1 uur en het 53 minuten geleden gemaakt, om 06:45 UTC
Verwachting geldig van 22 om 06 UTC tot 22 om 15 UTC
Wind 9 kt uit het zuidwesten
Zicht 10 km of meer
Geheel bewolkt op 2200 ft
Kans 30% :
Tijdelijke
van 22 om 06 UTC tot 22 om 15 UTC
Gebroken wolken op 1400 ft

TAF: EGAC 220645Z 2206/2215 22009KT 9999 OVC022 PROB30 TEMPO 2206/2215 BKN014

Waarnemingen en weersverwachtingen van meer dan 4000 vliegvelden (METAR en TAF).

De beschikbare stations zijn de gele en rode punten op de kaart.

Ga met uw muis naar het station om de naam te zien.

Klik dan om waarnemingen en weersverwachtingen te zien.

kaart wijzigen: klik op de groene knoppen met een zwart kruis om in te zoomen, op de groene knop met een streepje om uit te zoomen of op de groene pijlen voor aangrenzende kaarten.


METAR-TAF: